createdAt,value
2023-02-03T00:00:41.076Z,9.12
2023-02-03T00:01:41.046Z,9.12
2023-02-03T00:02:41.096Z,9.11
2023-02-03T00:03:40.986Z,9.12
2023-02-03T00:04:40.984Z,9.13
2023-02-03T00:05:40.993Z,9.13
2023-02-03T00:06:40.972Z,9.15
2023-02-03T00:07:40.962Z,9.13
2023-02-03T00:08:40.933Z,9.11
2023-02-03T00:09:41.035Z,9.12
2023-02-03T00:10:40.939Z,9.12
2023-02-03T00:11:40.913Z,9.12
2023-02-03T00:12:40.882Z,9.12
2023-02-03T00:13:41.118Z,9.13
2023-02-03T00:14:40.956Z,9.12
2023-02-03T00:15:41.153Z,9.12
2023-02-03T00:16:40.875Z,9.09
2023-02-03T00:17:41.071Z,9.13
2023-02-03T00:18:40.813Z,9.11
2023-02-03T00:19:40.812Z,9.12
2023-02-03T00:20:40.875Z,9.11
2023-02-03T00:21:40.849Z,9.11
2023-02-03T00:22:40.778Z,9.12
2023-02-03T00:23:40.770Z,9.12
2023-02-03T00:24:40.804Z,9.11
2023-02-03T00:25:40.779Z,9.12
2023-02-03T00:26:40.738Z,9.11
2023-02-03T00:27:40.782Z,9.11
2023-02-03T00:28:40.739Z,9.11
2023-02-03T00:29:40.736Z,9.11
2023-02-03T00:30:40.758Z,9.12
2023-02-03T00:31:40.772Z,9.12
2023-02-03T00:32:40.741Z,9.08
2023-02-03T00:33:40.681Z,9.09
2023-02-03T00:34:40.661Z,9.09
2023-02-03T00:35:40.654Z,9.09
2023-02-03T00:36:42.889Z,9.11
2023-02-03T00:37:40.672Z,9.09
2023-02-03T00:38:40.621Z,9.09
2023-02-03T00:39:40.602Z,9.09
2023-02-03T00:40:40.609Z,9.12
2023-02-03T00:41:40.593Z,9.11
2023-02-03T00:42:40.576Z,9.12
2023-02-03T00:43:40.601Z,9.13
2023-02-03T00:44:40.550Z,9.12
2023-02-03T00:45:40.601Z,9.12
2023-02-03T00:46:40.524Z,9.09
2023-02-03T00:47:40.513Z,9.13
2023-02-03T00:48:40.521Z,9.13
2023-02-03T00:49:40.689Z,9.16
2023-02-03T00:50:40.477Z,9.12
2023-02-03T00:51:40.464Z,9.15
2023-02-03T00:52:40.487Z,9.13
2023-02-03T00:53:40.465Z,9.11
2023-02-03T00:54:40.446Z,9.13
2023-02-03T00:55:40.420Z,9.12
2023-02-03T00:56:40.409Z,9.13
2023-02-03T00:57:40.405Z,9.15
2023-02-03T00:58:40.413Z,9.15
2023-02-03T00:59:40.393Z,9.13
2023-02-03T01:00:40.358Z,9.15
2023-02-03T01:01:40.364Z,9.12
2023-02-03T01:02:40.445Z,9.15
2023-02-03T01:03:40.361Z,9.13
2023-02-03T01:04:40.321Z,9.15
2023-02-03T01:05:40.583Z,9.13
2023-02-03T01:06:40.299Z,9.15
2023-02-03T01:07:40.282Z,9.16
2023-02-03T01:08:40.272Z,9.13
2023-02-03T01:09:40.316Z,9.13
2023-02-03T01:10:40.289Z,9.16
2023-02-03T01:11:40.275Z,9.16
2023-02-03T01:12:40.217Z,9.16
2023-02-03T01:13:40.240Z,9.16
2023-02-03T01:14:40.210Z,9.15
2023-02-03T01:15:40.224Z,9.15
2023-02-03T01:16:40.271Z,9.18
2023-02-03T01:17:40.201Z,9.16
2023-02-03T01:18:40.182Z,9.16
2023-02-03T01:19:40.171Z,9.16
2023-02-03T01:20:40.169Z,9.18
2023-02-03T01:21:40.171Z,9.18
2023-02-03T01:22:40.148Z,9.18
2023-02-03T01:23:40.141Z,9.18
2023-02-03T01:24:40.107Z,9.18
2023-02-03T01:25:40.088Z,9.19
2023-02-03T01:26:40.100Z,9.16
2023-02-03T01:27:40.183Z,9.21
2023-02-03T01:28:40.048Z,9.18
2023-02-03T01:29:40.059Z,9.19
2023-02-03T01:30:40.205Z,9.19
2023-02-03T01:31:40.299Z,9.18
2023-02-03T01:32:40.012Z,9.19
2023-02-03T01:33:40.018Z,9.19
2023-02-03T01:34:40.006Z,9.22
2023-02-03T01:35:39.982Z,9.21
2023-02-03T01:36:40.011Z,9.19
2023-02-03T01:37:39.962Z,9.21
2023-02-03T01:38:39.945Z,9.21
2023-02-03T01:39:39.983Z,9.21
2023-02-03T01:40:39.919Z,9.18
2023-02-03T01:41:39.972Z,9.24
2023-02-03T01:42:39.913Z,9.21
2023-02-03T01:43:39.908Z,9.22
2023-02-03T01:44:39.876Z,9.21
2023-02-03T01:45:39.887Z,9.22
2023-02-03T01:46:39.897Z,9.21
2023-02-03T01:47:39.867Z,9.22
2023-02-03T01:48:39.862Z,9.21
2023-02-03T01:49:39.845Z,9.24
2023-02-03T01:50:39.908Z,9.22
2023-02-03T01:51:39.833Z,9.26
2023-02-03T01:52:39.826Z,9.26
2023-02-03T01:53:39.787Z,9.24
2023-02-03T01:54:39.765Z,9.24
2023-02-03T01:55:39.781Z,9.26
2023-02-03T01:56:39.787Z,9.27
2023-02-03T01:57:39.778Z,9.26
2023-02-03T01:58:39.837Z,9.24
2023-02-03T01:59:39.723Z,9.27
2023-02-03T02:00:39.710Z,9.27
2023-02-03T02:01:39.787Z,9.29
2023-02-03T02:02:39.719Z,9.27
2023-02-03T02:03:39.689Z,9.27
2023-02-03T02:04:39.665Z,9.27
2023-02-03T02:05:39.664Z,9.27
2023-02-03T02:06:39.668Z,9.29
2023-02-03T02:07:39.666Z,9.26
2023-02-03T02:08:39.620Z,9.26
2023-02-03T02:09:39.616Z,9.29
2023-02-03T02:10:39.616Z,9.27
2023-02-03T02:11:39.597Z,9.26
2023-02-03T02:12:39.589Z,9.27
2023-02-03T02:13:39.579Z,9.27
2023-02-03T02:14:39.558Z,9.29
2023-02-03T02:15:39.630Z,9.29
2023-02-03T02:16:39.556Z,9.29
2023-02-03T02:17:39.516Z,9.29
2023-02-03T02:18:39.545Z,9.29
2023-02-03T02:19:39.510Z,9.30
2023-02-03T02:20:39.484Z,9.26
2023-02-03T02:21:39.492Z,9.30
2023-02-03T02:22:39.486Z,9.27
2023-02-03T02:23:39.474Z,9.30
2023-02-03T02:24:39.436Z,9.27
2023-02-03T02:25:39.445Z,9.29
2023-02-03T02:26:39.419Z,9.27
2023-02-03T02:27:39.445Z,9.30
2023-02-03T02:28:39.458Z,9.26
2023-02-03T02:29:39.387Z,9.27
2023-02-03T02:30:39.459Z,9.27
2023-02-03T02:31:39.528Z,9.29
2023-02-03T02:32:39.355Z,9.27
2023-02-03T02:33:39.366Z,9.27
2023-02-03T02:34:39.364Z,9.30
2023-02-03T02:35:39.335Z,9.29
2023-02-03T02:36:39.331Z,9.27
2023-02-03T02:37:39.312Z,9.27
2023-02-03T02:38:39.281Z,9.29
2023-02-03T02:39:39.275Z,9.29
2023-02-03T02:40:39.267Z,9.27
2023-02-03T02:41:39.293Z,9.27
2023-02-03T02:42:39.295Z,9.29
2023-02-03T02:43:39.265Z,9.30
2023-02-03T02:44:39.208Z,9.29
2023-02-03T02:45:39.266Z,9.29
2023-02-03T02:46:39.279Z,9.29
2023-02-03T02:47:39.184Z,9.29
2023-02-03T02:48:39.177Z,9.29
2023-02-03T02:49:39.189Z,9.27
2023-02-03T02:50:39.148Z,9.27
2023-02-03T02:51:39.206Z,9.27
2023-02-03T02:52:39.130Z,9.27
2023-02-03T02:53:39.134Z,9.29
2023-02-03T02:54:39.115Z,9.27
2023-02-03T02:55:39.107Z,9.29
2023-02-03T02:56:39.079Z,9.30
2023-02-03T02:57:39.096Z,9.29
2023-02-03T02:58:39.061Z,9.30
2023-02-03T02:59:39.062Z,9.30
2023-02-03T03:00:39.043Z,9.30
2023-02-03T03:01:39.104Z,9.30
2023-02-03T03:02:39.014Z,9.30
2023-02-03T03:03:39.033Z,9.30
2023-02-03T03:04:39.041Z,9.29
2023-02-03T03:05:38.984Z,9.29
2023-02-03T03:06:38.975Z,9.33
2023-02-03T03:07:38.981Z,9.30
2023-02-03T03:08:38.966Z,9.29
2023-02-03T03:09:38.940Z,9.30
2023-02-03T03:10:38.999Z,9.29
2023-02-03T03:11:38.922Z,9.29
2023-02-03T03:12:38.932Z,9.30
2023-02-03T03:13:38.902Z,9.31
2023-02-03T03:14:38.897Z,9.29
2023-02-03T03:15:38.906Z,9.30
2023-02-03T03:16:38.878Z,9.29
2023-02-03T03:17:38.908Z,9.30
2023-02-03T03:18:38.851Z,9.29
2023-02-03T03:19:38.837Z,9.31
2023-02-03T03:20:38.834Z,9.27
2023-02-03T03:21:38.840Z,9.29
2023-02-03T03:22:38.801Z,9.26
2023-02-03T03:23:38.811Z,9.31
2023-02-03T03:24:38.772Z,9.31
2023-02-03T03:25:38.772Z,9.31
2023-02-03T03:26:38.772Z,9.29
2023-02-03T03:27:38.843Z,9.29
2023-02-03T03:28:38.738Z,9.27
2023-02-03T03:29:38.741Z,9.30
2023-02-03T03:30:38.743Z,9.31
2023-02-03T03:31:38.751Z,9.30
2023-02-03T03:32:38.730Z,9.29
2023-02-03T03:33:38.683Z,9.29
2023-02-03T03:34:38.663Z,9.30
2023-02-03T03:35:38.666Z,9.30
2023-02-03T03:36:38.654Z,9.31
2023-02-03T03:37:38.660Z,9.27
2023-02-03T03:38:38.622Z,9.30
2023-02-03T03:39:38.640Z,9.30
2023-02-03T03:40:38.612Z,9.29
2023-02-03T03:41:38.590Z,9.29
2023-02-03T03:42:38.594Z,9.29
2023-02-03T03:43:38.580Z,9.30
2023-02-03T03:44:38.598Z,9.29
2023-02-03T03:45:38.576Z,9.31
2023-02-03T03:46:38.591Z,9.30
2023-02-03T03:47:38.530Z,9.33
2023-02-03T03:48:38.538Z,9.29
2023-02-03T03:49:38.506Z,9.30
2023-02-03T03:50:38.492Z,9.29
2023-02-03T03:51:38.482Z,9.30
2023-02-03T03:52:38.481Z,9.30
2023-02-03T03:53:38.459Z,9.30
2023-02-03T03:54:38.464Z,9.29
2023-02-03T03:55:38.441Z,9.30
2023-02-03T03:56:38.449Z,9.29
2023-02-03T03:57:38.435Z,9.30
2023-02-03T03:58:38.427Z,9.29
2023-02-03T03:59:38.401Z,9.30
2023-02-03T04:00:38.406Z,9.29
2023-02-03T04:01:38.511Z,9.31
2023-02-03T04:02:38.474Z,9.30
2023-02-03T04:03:38.363Z,9.30
2023-02-03T04:04:38.340Z,9.30
2023-02-03T04:05:38.344Z,9.30
2023-02-03T04:06:38.350Z,9.30
2023-02-03T04:07:38.312Z,9.31
2023-02-03T04:08:38.311Z,9.29
2023-02-03T04:09:38.292Z,9.31
2023-02-03T04:10:38.268Z,9.31
2023-02-03T04:11:38.289Z,9.29
2023-02-03T04:12:38.268Z,9.27
2023-02-03T04:13:38.246Z,9.30
2023-02-03T04:14:38.232Z,9.30
2023-02-03T04:15:38.245Z,9.29
2023-02-03T04:16:38.209Z,9.29
2023-02-03T04:17:38.239Z,9.29
2023-02-03T04:18:38.209Z,9.27
2023-02-03T04:19:38.177Z,9.31
2023-02-03T04:20:38.171Z,9.29
2023-02-03T04:21:38.165Z,9.30
2023-02-03T04:22:38.166Z,9.29
2023-02-03T04:23:38.144Z,9.31
2023-02-03T04:24:38.136Z,9.29
2023-02-03T04:25:38.118Z,9.30
2023-02-03T04:26:38.106Z,9.29
2023-02-03T04:27:38.139Z,9.30
2023-02-03T04:28:38.086Z,9.30
2023-02-03T04:29:38.076Z,9.30
2023-02-03T04:30:38.124Z,9.30
2023-02-03T04:31:38.064Z,9.30
2023-02-03T04:32:38.038Z,9.29
2023-02-03T04:33:38.042Z,9.31
2023-02-03T04:34:38.014Z,9.31
2023-02-03T04:35:38.007Z,9.31
2023-02-03T04:36:38.009Z,9.30
2023-02-03T04:37:37.984Z,9.31
2023-02-03T04:38:37.975Z,9.33
2023-02-03T04:39:37.975Z,9.31
2023-02-03T04:40:37.975Z,9.29
2023-02-03T04:41:37.939Z,9.31
2023-02-03T04:42:37.956Z,9.31
2023-02-03T04:43:37.928Z,9.31
2023-02-03T04:44:37.917Z,9.30
2023-02-03T04:45:37.951Z,9.30
2023-02-03T04:46:37.908Z,9.31
2023-02-03T04:47:37.899Z,9.33
2023-02-03T04:48:37.887Z,9.30
2023-02-03T04:49:37.870Z,9.31
2023-02-03T04:50:37.861Z,9.30
2023-02-03T04:51:37.839Z,9.31
2023-02-03T04:52:37.847Z,9.33
2023-02-03T04:53:37.820Z,9.31
2023-02-03T04:54:37.818Z,9.30
2023-02-03T04:55:37.812Z,9.31
2023-02-03T04:56:37.793Z,9.30
2023-02-03T04:57:37.777Z,9.31
2023-02-03T04:58:37.841Z,9.31
2023-02-03T04:59:37.745Z,9.33
2023-02-03T05:00:37.762Z,9.31
2023-02-03T05:01:37.723Z,9.31
2023-02-03T05:02:37.736Z,9.31
2023-02-03T05:03:37.782Z,9.33
2023-02-03T05:04:37.705Z,9.31
2023-02-03T05:05:37.729Z,9.33
2023-02-03T05:06:37.692Z,9.31
2023-02-03T05:07:37.671Z,9.31
2023-02-03T05:08:37.676Z,9.30
2023-02-03T05:09:37.652Z,9.33
2023-02-03T05:10:37.661Z,9.33
2023-02-03T05:11:37.635Z,9.31
2023-02-03T05:12:37.618Z,9.33
2023-02-03T05:13:37.626Z,9.34
2023-02-03T05:14:37.600Z,9.31
2023-02-03T05:15:37.576Z,9.36
2023-02-03T05:16:37.634Z,9.33
2023-02-03T05:17:37.579Z,9.33
2023-02-03T05:18:37.583Z,9.33
2023-02-03T05:19:37.535Z,9.31
2023-02-03T05:20:37.567Z,9.30
2023-02-03T05:21:37.516Z,9.31
2023-02-03T05:22:37.507Z,9.31
2023-02-03T05:23:37.520Z,9.31
2023-02-03T05:24:37.516Z,9.30
2023-02-03T05:25:37.535Z,9.30
2023-02-03T05:26:37.466Z,9.31
2023-02-03T05:27:37.509Z,9.33
2023-02-03T05:28:37.442Z,9.30
2023-02-03T05:29:37.442Z,9.34
2023-02-03T05:30:37.485Z,9.31
2023-02-03T05:31:37.428Z,9.33
2023-02-03T05:32:37.405Z,9.30
2023-02-03T05:33:37.382Z,9.30
2023-02-03T05:34:37.421Z,9.33
2023-02-03T05:35:37.418Z,9.33
2023-02-03T05:36:37.376Z,9.31
2023-02-03T05:37:37.357Z,9.30
2023-02-03T05:38:37.351Z,9.34
2023-02-03T05:39:37.363Z,9.33
2023-02-03T05:40:37.327Z,9.31
2023-02-03T05:41:37.312Z,9.33
2023-02-03T05:42:37.301Z,9.31
2023-02-03T05:43:37.319Z,9.31
2023-02-03T05:44:37.318Z,9.31
2023-02-03T05:45:37.451Z,9.31
2023-02-03T05:46:37.302Z,9.34
2023-02-03T05:47:37.252Z,9.33
2023-02-03T05:48:37.230Z,9.31
2023-02-03T05:49:37.320Z,9.34
2023-02-03T05:50:38.683Z,9.30
2023-02-03T05:51:37.202Z,9.34
2023-02-03T05:52:37.204Z,9.31
2023-02-03T05:53:37.174Z,9.34
2023-02-03T05:54:37.223Z,9.33
2023-02-03T05:55:37.144Z,9.34
2023-02-03T05:56:37.144Z,9.31
2023-02-03T05:57:37.202Z,9.33
2023-02-03T05:58:37.141Z,9.36
2023-02-03T05:59:37.150Z,9.34
2023-02-03T06:00:37.099Z,9.34
2023-02-03T06:01:37.098Z,9.31
2023-02-03T06:02:37.069Z,9.34
2023-02-03T06:03:37.123Z,9.34
2023-02-03T06:04:37.177Z,9.34
2023-02-03T06:05:37.039Z,9.36
2023-02-03T06:06:37.249Z,9.34
2023-02-03T06:07:37.019Z,9.36
2023-02-03T06:08:37.033Z,9.36
2023-02-03T06:09:37.031Z,9.36
2023-02-03T06:10:37.028Z,9.39
2023-02-03T06:11:37.124Z,9.34
2023-02-03T06:12:37.073Z,9.37
2023-02-03T06:13:36.957Z,9.39
2023-02-03T06:14:36.959Z,9.36
2023-02-03T06:15:36.967Z,9.37
2023-02-03T06:16:36.979Z,9.36
2023-02-03T06:17:36.952Z,9.39
2023-02-03T06:18:36.933Z,9.36
2023-02-03T06:19:36.899Z,9.39
2023-02-03T06:20:36.893Z,9.37
2023-02-03T06:21:36.869Z,9.37
2023-02-03T06:22:36.857Z,9.37
2023-02-03T06:23:36.837Z,9.40
2023-02-03T06:24:36.857Z,9.37
2023-02-03T06:25:36.839Z,9.39
2023-02-03T06:26:36.886Z,9.39
2023-02-03T06:27:36.840Z,9.40
2023-02-03T06:28:36.830Z,9.39
2023-02-03T06:29:36.872Z,9.39
2023-02-03T06:30:36.828Z,9.40
2023-02-03T06:31:36.892Z,9.42
2023-02-03T06:32:36.839Z,9.39
2023-02-03T06:33:36.730Z,9.40
2023-02-03T06:34:36.807Z,9.42
2023-02-03T06:35:36.779Z,9.42
2023-02-03T06:36:36.769Z,9.39
2023-02-03T06:37:36.692Z,9.42
2023-02-03T06:38:36.703Z,9.44
2023-02-03T06:39:36.667Z,9.44
2023-02-03T06:40:36.679Z,9.40
2023-02-03T06:41:36.751Z,9.44
2023-02-03T06:42:36.668Z,9.45
2023-02-03T06:43:36.648Z,9.44
2023-02-03T06:44:36.585Z,9.45
2023-02-03T06:45:36.567Z,9.44
2023-02-03T06:46:36.654Z,9.42
2023-02-03T06:47:36.632Z,9.42
2023-02-03T06:48:36.618Z,9.44
2023-02-03T06:49:36.616Z,9.45
2023-02-03T06:50:36.517Z,9.42
2023-02-03T06:51:36.492Z,9.45
2023-02-03T06:52:36.480Z,9.42
2023-02-03T06:53:36.710Z,9.42
2023-02-03T06:54:36.462Z,9.47
2023-02-03T06:55:36.458Z,9.44
2023-02-03T06:56:36.484Z,9.45
2023-02-03T06:57:36.432Z,9.47
2023-02-03T06:58:36.420Z,9.45
2023-02-03T06:59:36.398Z,9.45
2023-02-03T07:00:36.385Z,9.47
2023-02-03T07:01:36.474Z,9.45
2023-02-03T07:02:36.531Z,9.44
2023-02-03T07:03:36.359Z,9.48
2023-02-03T07:04:36.367Z,9.47
2023-02-03T07:05:36.334Z,9.48
2023-02-03T07:06:36.399Z,9.47
2023-02-03T07:07:36.311Z,9.48
2023-02-03T07:08:36.335Z,9.47
2023-02-03T07:09:36.321Z,9.48
2023-02-03T07:10:36.281Z,9.48
2023-02-03T07:11:36.276Z,9.51
2023-02-03T07:12:36.252Z,9.48
2023-02-03T07:13:36.257Z,9.49
2023-02-03T07:14:36.282Z,9.49
2023-02-03T07:15:36.417Z,9.49
2023-02-03T07:16:36.202Z,9.49
2023-02-03T07:17:36.213Z,9.51
2023-02-03T07:18:46.905Z,9.51
2023-02-03T07:19:37.195Z,9.51
2023-02-03T07:20:36.158Z,9.51
2023-02-03T07:21:36.215Z,9.54
2023-02-03T07:22:36.163Z,9.52
2023-02-03T07:23:36.173Z,9.55
2023-02-03T07:24:36.105Z,9.54
2023-02-03T07:25:36.130Z,9.54
2023-02-03T07:26:36.104Z,9.55
2023-02-03T07:27:36.808Z,9.55
2023-02-03T07:28:36.081Z,9.52
2023-02-03T07:29:36.207Z,9.56
2023-02-03T07:30:36.079Z,9.56
2023-02-03T07:31:36.153Z,9.58
2023-02-03T07:32:36.021Z,9.59
2023-02-03T07:33:36.015Z,9.59
2023-02-03T07:34:36.029Z,9.58
2023-02-03T07:35:36.003Z,9.59
2023-02-03T07:36:35.984Z,9.59
2023-02-03T07:37:35.985Z,9.59
2023-02-03T07:38:35.951Z,9.62
2023-02-03T07:39:35.943Z,9.62
2023-02-03T07:40:35.931Z,9.62
2023-02-03T07:41:35.977Z,9.63
2023-02-03T07:42:35.920Z,9.62
2023-02-03T07:43:35.931Z,9.66
2023-02-03T07:44:35.917Z,9.64
2023-02-03T07:45:35.924Z,9.64
2023-02-03T07:46:35.936Z,9.66
2023-02-03T07:47:35.860Z,9.69
2023-02-03T07:48:35.864Z,9.66
2023-02-03T07:49:35.849Z,9.67
2023-02-03T07:50:35.832Z,9.69
2023-02-03T07:51:35.829Z,9.69
2023-02-03T07:52:35.801Z,9.69
2023-02-03T07:53:35.828Z,9.69
2023-02-03T07:54:35.783Z,9.72
2023-02-03T07:55:35.787Z,9.73
2023-02-03T07:56:35.756Z,9.72
2023-02-03T07:57:35.758Z,9.73
2023-02-03T07:58:35.773Z,9.74
2023-02-03T07:59:35.768Z,9.73
2023-02-03T08:00:35.795Z,9.76
2023-02-03T08:01:35.779Z,9.77
2023-02-03T08:02:35.694Z,9.76
2023-02-03T08:03:35.713Z,9.80
2023-02-03T08:04:35.717Z,9.77
2023-02-03T08:05:35.696Z,9.80
2023-02-03T08:06:35.652Z,9.77
2023-02-03T08:07:35.651Z,9.82
2023-02-03T08:08:35.697Z,9.81
2023-02-03T08:09:35.641Z,9.82
2023-02-03T08:10:35.615Z,9.80
2023-02-03T08:11:35.661Z,9.81
2023-02-03T08:12:35.574Z,9.85
2023-02-03T08:13:35.733Z,9.84
2023-02-03T08:14:35.564Z,9.85
2023-02-03T08:15:35.547Z,9.90
2023-02-03T08:16:35.600Z,9.87
2023-02-03T08:17:35.572Z,9.88
2023-02-03T08:18:35.526Z,9.91
2023-02-03T08:19:35.513Z,9.90
2023-02-03T08:20:35.493Z,9.90
2023-02-03T08:21:35.482Z,9.92
2023-02-03T08:22:35.465Z,9.94
2023-02-03T08:23:35.488Z,9.92
2023-02-03T08:24:35.479Z,9.94
2023-02-03T08:25:35.462Z,9.99
2023-02-03T08:26:35.441Z,9.95
2023-02-03T08:27:35.436Z,9.97
2023-02-03T08:28:35.425Z,9.97
2023-02-03T08:29:35.425Z,9.97
2023-02-03T08:30:35.405Z,10.00
2023-02-03T08:31:35.446Z,10.00
2023-02-03T08:32:35.400Z,9.95
2023-02-03T08:33:35.378Z,10.05
2023-02-03T08:34:35.339Z,10.02
2023-02-03T08:35:35.362Z,10.02
2023-02-03T08:36:35.367Z,10.03
2023-02-03T08:37:35.322Z,10.07
2023-02-03T08:38:35.306Z,10.06
2023-02-03T08:39:35.312Z,10.06
2023-02-03T08:40:35.343Z,10.07
2023-02-03T08:41:35.294Z,10.09
2023-02-03T08:42:35.262Z,10.10
2023-02-03T08:43:35.252Z,10.10
2023-02-03T08:44:35.309Z,10.10
2023-02-03T08:45:35.322Z,10.13
2023-02-03T08:46:35.233Z,10.13
2023-02-03T08:47:35.233Z,10.17
2023-02-03T08:48:35.223Z,10.20
2023-02-03T08:49:35.196Z,10.21
2023-02-03T08:50:35.234Z,10.17
2023-02-03T08:51:35.174Z,10.21
2023-02-03T08:52:35.252Z,10.21
2023-02-03T08:53:35.150Z,10.20
2023-02-03T08:54:35.172Z,10.21
2023-02-03T08:55:35.174Z,10.23
2023-02-03T08:56:35.145Z,10.23
2023-02-03T08:57:35.253Z,10.25
2023-02-03T08:58:35.091Z,10.25
2023-02-03T08:59:35.080Z,10.28
2023-02-03T09:00:35.073Z,10.28
2023-02-03T09:01:35.065Z,10.28
2023-02-03T09:02:35.078Z,10.28
2023-02-03T09:03:35.025Z,10.27
2023-02-03T09:04:35.212Z,10.30
2023-02-03T09:05:35.051Z,10.31
2023-02-03T09:06:34.999Z,10.31
2023-02-03T09:07:34.984Z,10.34
2023-02-03T09:08:34.994Z,10.38
2023-02-03T09:09:35.170Z,10.38
2023-02-03T09:10:34.958Z,10.34
2023-02-03T09:11:34.966Z,10.36
2023-02-03T09:12:34.948Z,10.34
2023-02-03T09:13:34.923Z,10.34
2023-02-03T09:14:34.937Z,10.33
2023-02-03T09:15:34.921Z,10.38
2023-02-03T09:16:34.913Z,10.38
2023-02-03T09:17:34.952Z,10.41
2023-02-03T09:18:34.854Z,10.36
2023-02-03T09:19:36.516Z,10.39
2023-02-03T09:20:34.878Z,10.36
2023-02-03T09:21:37.813Z,10.36
2023-02-03T09:22:35.843Z,10.38
2023-02-03T09:23:34.936Z,10.41
2023-02-03T09:24:34.855Z,10.39
2023-02-03T09:25:34.811Z,10.42
2023-02-03T09:26:34.773Z,10.42
2023-02-03T09:27:34.830Z,10.42
2023-02-03T09:28:34.798Z,10.45
2023-02-03T09:29:34.778Z,10.43
2023-02-03T09:30:34.783Z,10.43
2023-02-03T09:31:34.767Z,10.43
2023-02-03T09:32:34.762Z,10.43
2023-02-03T09:33:34.740Z,10.42
2023-02-03T09:34:34.731Z,10.45
2023-02-03T09:35:34.697Z,10.45
2023-02-03T09:36:34.701Z,10.42
2023-02-03T09:37:34.709Z,10.42
2023-02-03T09:38:34.636Z,10.42
2023-02-03T09:39:34.617Z,10.42
2023-02-03T09:40:34.644Z,10.43
2023-02-03T09:41:34.657Z,10.41
2023-02-03T09:42:34.654Z,10.41
2023-02-03T09:43:34.615Z,10.42
2023-02-03T09:44:34.569Z,10.41
2023-02-03T09:45:34.623Z,10.42
2023-02-03T09:46:34.534Z,10.41
2023-02-03T09:47:34.560Z,10.41
2023-02-03T09:48:34.561Z,10.42
2023-02-03T09:49:34.523Z,10.41
2023-02-03T09:50:34.515Z,10.43
2023-02-03T09:51:34.549Z,10.42
2023-02-03T09:52:34.511Z,10.38
2023-02-03T09:53:34.480Z,10.38
2023-02-03T09:54:34.508Z,10.41
2023-02-03T09:55:34.467Z,10.41
2023-02-03T09:56:34.470Z,10.42
2023-02-03T09:57:34.442Z,10.43
2023-02-03T09:58:34.466Z,10.41
2023-02-03T09:59:34.398Z,10.41
2023-02-03T10:00:34.393Z,10.41
2023-02-03T10:01:34.459Z,10.42
2023-02-03T10:02:34.473Z,10.42
2023-02-03T10:03:34.378Z,10.43
2023-02-03T10:04:34.355Z,10.45
2023-02-03T10:05:34.339Z,10.48
2023-02-03T10:06:34.395Z,10.46
2023-02-03T10:07:34.349Z,10.45
2023-02-03T10:08:34.319Z,10.43
2023-02-03T10:09:34.307Z,10.43
2023-02-03T10:10:34.312Z,10.43
2023-02-03T10:11:34.266Z,10.45
2023-02-03T10:12:34.265Z,10.42
2023-02-03T10:13:34.495Z,10.43
2023-02-03T10:14:34.213Z,10.43
2023-02-03T10:15:34.259Z,10.45
2023-02-03T10:16:34.260Z,10.45
2023-02-03T10:17:34.234Z,10.45
2023-02-03T10:18:34.184Z,10.45
2023-02-03T10:19:34.190Z,10.48
2023-02-03T10:20:34.155Z,10.46
2023-02-03T10:21:34.160Z,10.48
2023-02-03T10:22:34.127Z,10.46
2023-02-03T10:23:34.151Z,10.46
2023-02-03T10:24:34.198Z,10.49
2023-02-03T10:25:34.131Z,10.51
2023-02-03T10:26:34.151Z,10.51
2023-02-03T10:27:34.128Z,10.48
2023-02-03T10:28:34.085Z,10.49
2023-02-03T10:29:34.092Z,10.53
2023-02-03T10:30:34.238Z,10.48
2023-02-03T10:31:34.086Z,10.49
2023-02-03T10:32:34.037Z,10.48
2023-02-03T10:33:34.024Z,10.51
2023-02-03T10:34:34.017Z,10.49
2023-02-03T10:35:34.020Z,10.49
2023-02-03T10:36:34.016Z,10.51
2023-02-03T10:37:33.982Z,10.49
2023-02-03T10:38:33.987Z,10.48
2023-02-03T10:39:33.954Z,10.49
2023-02-03T10:40:33.958Z,10.49
2023-02-03T10:41:33.954Z,10.55
2023-02-03T10:42:33.916Z,10.51
2023-02-03T10:43:34.023Z,10.53
2023-02-03T10:44:33.994Z,10.53
2023-02-03T10:45:34.003Z,10.55
2023-02-03T10:46:33.980Z,10.55
2023-02-03T10:47:33.895Z,10.55
2023-02-03T10:48:33.861Z,10.57
2023-02-03T10:49:33.849Z,10.55
2023-02-03T10:50:33.832Z,10.53
2023-02-03T10:51:33.825Z,10.57
2023-02-03T10:52:33.821Z,10.55
2023-02-03T10:53:33.851Z,10.58
2023-02-03T10:54:33.801Z,10.58
2023-02-03T10:55:33.773Z,10.59
2023-02-03T10:56:33.876Z,10.62
2023-02-03T10:57:33.763Z,10.64
2023-02-03T10:58:33.771Z,10.62
2023-02-03T10:59:33.751Z,10.62
2023-02-03T11:00:33.719Z,10.64
2023-02-03T11:01:33.715Z,10.67
2023-02-03T11:02:33.762Z,10.62
2023-02-03T11:03:33.894Z,10.64
2023-02-03T11:04:33.683Z,10.65
2023-02-03T11:05:33.694Z,10.65
2023-02-03T11:06:33.672Z,10.65
2023-02-03T11:07:33.637Z,10.68
2023-02-03T11:08:33.647Z,10.67
2023-02-03T11:09:33.695Z,10.68
2023-02-03T11:10:33.620Z,10.68
2023-02-03T11:11:33.627Z,10.68
2023-02-03T11:12:33.635Z,10.69
2023-02-03T11:13:33.682Z,10.71
2023-02-03T11:14:33.570Z,10.68
2023-02-03T11:15:33.585Z,10.65
2023-02-03T11:16:33.552Z,10.71
2023-02-03T11:17:33.543Z,10.71
2023-02-03T11:18:33.543Z,10.68
2023-02-03T11:19:33.505Z,10.71
2023-02-03T11:20:33.497Z,10.71
2023-02-03T11:21:33.507Z,10.75
2023-02-03T11:22:33.475Z,10.77
2023-02-03T11:23:33.495Z,10.77
2023-02-03T11:24:33.453Z,10.77
2023-02-03T11:25:33.478Z,10.83
2023-02-03T11:26:33.495Z,10.83
2023-02-03T11:27:33.423Z,10.82
2023-02-03T11:28:33.468Z,10.83
2023-02-03T11:29:33.397Z,10.84
2023-02-03T11:30:33.404Z,10.86
2023-02-03T11:31:33.567Z,10.87
2023-02-03T11:32:33.359Z,10.87
2023-02-03T11:33:33.441Z,10.90
2023-02-03T11:34:33.413Z,10.92
2023-02-03T11:35:33.323Z,10.90
2023-02-03T11:36:33.362Z,10.89
2023-02-03T11:37:33.304Z,10.90
2023-02-03T11:38:33.307Z,10.90
2023-02-03T11:39:33.312Z,10.94
2023-02-03T11:40:33.286Z,10.94
2023-02-03T11:41:33.269Z,10.92
2023-02-03T11:42:33.263Z,10.94
2023-02-03T11:43:33.249Z,10.90
2023-02-03T11:44:33.419Z,10.92
2023-02-03T11:45:33.297Z,10.94
2023-02-03T11:46:33.281Z,10.92
2023-02-03T11:47:33.259Z,10.97
2023-02-03T11:48:33.261Z,10.94
2023-02-03T11:49:33.202Z,10.94
2023-02-03T11:50:33.174Z,10.90
2023-02-03T11:51:33.148Z,10.92
2023-02-03T11:52:33.174Z,10.90
2023-02-03T11:53:33.149Z,10.89
2023-02-03T11:54:33.139Z,10.92
2023-02-03T11:55:33.130Z,10.94
2023-02-03T11:56:33.108Z,10.92
2023-02-03T11:57:33.096Z,10.95
2023-02-03T11:58:33.070Z,10.94
2023-02-03T11:59:33.111Z,10.95
2023-02-03T12:00:33.069Z,10.95
2023-02-03T12:01:33.086Z,10.97
2023-02-03T12:02:33.074Z,11.00
2023-02-03T12:03:33.032Z,10.97
2023-02-03T12:04:33.093Z,10.97
2023-02-03T12:05:33.032Z,10.98
2023-02-03T12:06:32.995Z,10.94
2023-02-03T12:07:33.035Z,10.95
2023-02-03T12:08:32.988Z,10.89
2023-02-03T12:09:32.983Z,10.89
2023-02-03T12:10:33.019Z,10.87
2023-02-03T12:11:32.928Z,10.84
2023-02-03T12:12:32.963Z,10.86
2023-02-03T12:13:32.910Z,10.87
2023-02-03T12:14:32.953Z,10.84
2023-02-03T12:15:32.888Z,10.83
2023-02-03T12:16:33.039Z,10.83
2023-02-03T12:17:32.879Z,10.86
2023-02-03T12:18:32.857Z,10.87
2023-02-03T12:19:32.929Z,10.86
2023-02-03T12:20:32.839Z,10.83
2023-02-03T12:21:32.826Z,10.87
2023-02-03T12:22:32.909Z,10.86
2023-02-03T12:23:32.796Z,10.87
2023-02-03T12:24:32.843Z,10.94
2023-02-03T12:25:32.783Z,10.92
2023-02-03T12:26:32.774Z,10.94
2023-02-03T12:27:32.760Z,10.95
2023-02-03T12:28:34.172Z,10.95
2023-02-03T12:29:32.730Z,10.97
2023-02-03T12:30:33.133Z,10.97
2023-02-03T12:31:32.748Z,11.00
2023-02-03T12:32:32.727Z,10.98
2023-02-03T12:33:32.680Z,11.01
2023-02-03T12:34:32.717Z,11.00
2023-02-03T12:35:32.678Z,11.00
2023-02-03T12:36:32.669Z,11.00
2023-02-03T12:37:32.656Z,11.01
2023-02-03T12:38:32.664Z,11.01
2023-02-03T12:39:32.619Z,11.00
2023-02-03T12:40:32.660Z,11.00
2023-02-03T12:41:32.616Z,10.97
2023-02-03T12:42:32.615Z,10.94
2023-02-03T12:43:32.578Z,10.95
2023-02-03T12:44:32.615Z,10.94
2023-02-03T12:45:32.600Z,10.90
2023-02-03T12:46:32.616Z,10.92
2023-02-03T12:47:32.540Z,10.87
2023-02-03T12:48:32.565Z,10.87
2023-02-03T12:49:32.510Z,10.90
2023-02-03T12:50:32.591Z,10.82
2023-02-03T12:51:32.477Z,10.83
2023-02-03T12:52:32.484Z,10.80
2023-02-03T12:53:32.455Z,10.80
2023-02-03T12:54:32.444Z,10.76
2023-02-03T12:55:32.435Z,10.75
2023-02-03T12:56:32.435Z,10.75
2023-02-03T12:57:32.419Z,10.72
2023-02-03T12:58:34.483Z,10.75
2023-02-03T12:59:32.386Z,10.72
2023-02-03T13:00:32.385Z,10.71
2023-02-03T13:01:32.363Z,10.71
2023-02-03T13:02:32.477Z,10.67
2023-02-03T13:03:32.378Z,10.67
2023-02-03T13:04:32.424Z,10.65
2023-02-03T13:05:32.331Z,10.62
2023-02-03T13:06:32.370Z,10.61
2023-02-03T13:07:32.305Z,10.61
2023-02-03T13:08:32.424Z,10.59
2023-02-03T13:09:32.284Z,10.61